Time;durP1;ratioP1;P1;durP2;ratioP2;P2;SDS_P1;SDS_P2;PMS_P1;PMS_P2;Temp;Humidity;BMP_temperature;BMP_pressure;BME280_temperature;BME280_humidity;BME280_pressure;Samples;Min_cycle;Max_cycle;Signal;HPM_P1;HPM_P2
2022/06/09 00:01:58;;;;;;;14.50;2.33;;;14.10;99.90;;;;;;6333295;22;19999;-86
2022/06/09 00:04:31;;;;;;;20.98;2.92;;;14.00;99.90;;;;;;6306164;22;20006;-86
2022/06/09 00:07:01;;;;;;;17.20;2.70;;;14.00;99.90;;;;;;6305568;22;19999;-86
2022/06/09 00:09:32;;;;;;;15.07;2.75;;;13.90;99.90;;;;;;6306071;22;20026;-85
2022/06/09 00:11:58;;;;;;;16.85;2.80;;;13.90;99.90;;;;;;6333243;22;20070;-86
2022/06/09 00:14:24;;;;;;;20.95;3.30;;;13.90;99.90;;;;;;6333351;22;19999;-86
2022/06/09 00:16:50;;;;;;;19.70;3.20;;;13.80;99.90;;;;;;6306082;22;20007;-86
2022/06/09 00:19:19;;;;;;;17.02;2.70;;;13.80;99.90;;;;;;6305719;22;20025;-86
2022/06/09 00:21:45;;;;;;;16.70;3.10;;;13.80;99.90;;;;;;6333172;22;20560;-87
2022/06/09 00:24:11;;;;;;;23.75;2.95;;;13.90;99.90;;;;;;6333152;22;20029;-86
2022/06/09 00:26:37;;;;;;;18.10;3.05;;;14.00;99.90;;;;;;6334805;22;20009;-86
2022/06/09 00:29:03;;;;;;;21.35;3.45;;;14.00;99.90;;;;;;6305855;22;20006;-86
2022/06/09 00:31:29;;;;;;;19.58;3.20;;;14.00;99.90;;;;;;6333505;22;19995;-86
2022/06/09 00:33:55;;;;;;;15.48;3.10;;;14.00;99.90;;;;;;6332493;22;20006;-85
2022/06/09 00:36:20;;;;;;;22.65;3.28;;;14.00;99.90;;;;;;6333418;22;20014;-86
2022/06/09 00:38:46;;;;;;;16.73;3.17;;;14.10;99.90;;;;;;6333340;22;20010;-85
2022/06/09 00:41:12;;;;;;;16.58;3.05;;;14.00;99.90;;;;;;6333160;22;20034;-86
2022/06/09 00:43:44;;;;;;;19.92;2.97;;;14.00;99.90;;;;;;6306841;22;20045;-86
2022/06/09 00:46:23;;;;;;;18.33;2.88;;;14.00;99.90;;;;;;6306499;22;20064;-86
2022/06/09 00:48:59;;;;;;;18.85;3.25;;;14.00;99.90;;;;;;6333300;22;20438;-86
2022/06/09 00:51:28;;;;;;;18.13;2.78;;;14.00;99.90;;;;;;6333919;22;20074;-86
2022/06/09 00:54:00;;;;;;;;;;;14.00;99.90;;;;;;6306015;22;20332;-86
2022/06/09 00:56:26;;;;;;;23.83;3.20;;;14.10;99.90;;;;;;6333157;22;19942;-86
2022/06/09 00:58:54;;;;;;;20.17;2.67;;;14.10;99.90;;;;;;6305486;22;20347;-85
2022/06/09 01:01:20;;;;;;;21.10;2.78;;;14.20;99.90;;;;;;6333389;22;20002;-86
2022/06/09 01:03:54;;;;;;;24.35;3.13;;;14.20;99.90;;;;;;6333071;22;20046;-86
2022/06/09 01:06:23;;;;;;;22.20;3.13;;;14.20;99.90;;;;;;6305337;22;20063;-86
2022/06/09 01:09:17;;;;;;;22.13;3.35;;;14.20;99.90;;;;;;6332733;22;20029;-86
2022/06/09 01:11:45;;;;;;;18.60;3.03;;;14.20;99.90;;;;;;6327745;22;20007;-85
2022/06/09 01:14:13;;;;;;;16.40;3.00;;;14.20;99.90;;;;;;6333642;22;20002;-85
2022/06/09 01:16:59;;;;;;;18.02;2.97;;;14.20;99.90;;;;;;6333915;22;20395;-86
2022/06/09 01:19:33;;;;;;;23.88;3.40;;;14.30;99.90;;;;;;6332933;22;20446;-87
2022/06/09 01:22:21;;;;;;;20.05;2.92;;;14.30;99.90;;;;;;6332788;22;20001;-86
2022/06/09 01:25:07;;;;;;;22.00;3.80;;;14.40;99.90;;;;;;6332919;22;20006;-86
2022/06/09 01:27:35;;;;;;;18.92;3.35;;;14.30;99.90;;;;;;6333249;22;20444;-86
2022/06/09 01:30:36;;;;;;;;;;;14.30;99.90;;;;;;6333395;22;19995;-86
2022/06/09 01:33:10;;;;;;;25.10;3.15;;;14.30;99.90;;;;;;6176708;23;20219;-86
2022/06/09 01:35:47;;;;;;;22.48;2.90;;;14.30;99.90;;;;;;6282099;22;20549;-86
2022/06/09 01:38:13;;;;;;;21.88;3.40;;;14.30;99.90;;;;;;6333139;22;20014;-87
2022/06/09 01:40:39;;;;;;;31.10;4.35;;;14.20;99.90;;;;;;6333288;22;20007;-85
2022/06/09 01:43:05;;;;;;;22.05;3.85;;;14.30;99.90;;;;;;6332660;22;20006;-85
2022/06/09 01:46:06;;;;;;;16.90;3.08;;;14.20;99.90;;;;;;6304698;22;20006;-86
2022/06/09 01:48:33;;;;;;;21.60;3.13;;;14.20;99.90;;;;;;6311927;22;20343;-85
2022/06/09 01:51:11;;;;;;;22.15;3.72;;;14.20;99.90;;;;;;6332159;22;20362;-86
2022/06/09 01:54:05;;;;;;;21.83;3.20;;;14.20;99.90;;;;;;6332575;22;20024;-85
2022/06/09 01:56:33;;;;;;;20.25;3.65;;;14.10;99.90;;;;;;6332802;22;20030;-86
2022/06/09 01:59:12;;;;;;;18.75;3.65;;;14.20;99.90;;;;;;6332407;22;20469;-86
2022/06/09 02:01:49;;;;;;;24.55;4.13;;;14.20;99.90;;;;;;6332576;22;19995;-86
2022/06/09 02:04:24;;;;;;;25.02;3.85;;;14.20;99.90;;;;;;6332170;22;20070;-85
2022/06/09 02:06:51;;;;;;;19.50;3.20;;;14.20;99.90;;;;;;6333133;22;20003;-86
2022/06/09 02:09:17;;;;;;;21.50;4.22;;;14.20;99.90;;;;;;6332986;22;20026;-84
2022/06/09 02:11:49;;;;;;;17.92;3.33;;;14.20;99.90;;;;;;6333986;22;20052;-86
2022/06/09 02:14:17;;;;;;;19.55;3.60;;;14.20;99.90;;;;;;6332131;22;20071;-86
2022/06/09 02:16:44;;;;;;;24.35;3.95;;;14.20;99.90;;;;;;6333431;22;20026;-88
2022/06/09 02:19:09;;;;;;;25.95;3.85;;;14.20;99.90;;;;;;6331706;22;20015;-87
2022/06/09 02:21:37;;;;;;;24.05;3.55;;;14.20;99.90;;;;;;6332794;22;20328;-86
2022/06/09 02:24:02;;;;;;;23.25;3.42;;;14.20;99.90;;;;;;6332259;22;20436;-86
2022/06/09 02:26:28;;;;;;;24.48;3.17;;;14.20;99.90;;;;;;6332477;22;20002;-85
2022/06/09 02:28:54;;;;;;;21.92;3.80;;;14.20;99.90;;;;;;6332210;22;20005;-86
2022/06/09 02:31:21;;;;;;;23.08;3.88;;;14.20;99.90;;;;;;6332439;22;20005;-85
2022/06/09 02:33:48;;;;;;;20.40;3.35;;;14.20;99.90;;;;;;6332568;22;19998;-86
2022/06/09 02:36:15;;;;;;;30.05;4.28;;;14.20;99.90;;;;;;6333249;22;20014;-85
2022/06/09 02:38:41;;;;;;;24.15;4.22;;;14.20;99.90;;;;;;6333471;22;20439;-85
2022/06/09 02:41:07;;;;;;;22.88;3.80;;;14.20;99.90;;;;;;6332113;22;20061;-85
2022/06/09 02:43:33;;;;;;;25.40;3.97;;;14.20;99.90;;;;;;6332213;22;20006;-84
2022/06/09 02:45:59;;;;;;;22.30;3.55;;;14.20;99.90;;;;;;6331242;22;20028;-85
2022/06/09 02:48:25;;;;;;;22.13;4.15;;;14.20;99.90;;;;;;6332432;22;20006;-85
2022/06/09 02:50:52;;;;;;;24.27;4.03;;;14.20;99.90;;;;;;6332582;22;20443;-85
2022/06/09 02:53:19;;;;;;;25.58;3.60;;;14.20;99.90;;;;;;6332286;22;19999;-86
2022/06/09 02:55:46;;;;;;;29.50;4.32;;;14.20;99.90;;;;;;6305836;22;20003;-87
2022/06/09 02:58:12;;;;;;;20.83;3.50;;;14.10;99.90;;;;;;6332858;22;20168;-86
2022/06/09 03:00:38;;;;;;;20.65;3.60;;;14.10;99.90;;;;;;6332069;22;20434;-86
2022/06/09 03:03:07;;;;;;;18.40;3.72;;;14.10;99.90;;;;;;6332190;22;20009;-84
2022/06/09 03:05:35;;;;;;;29.27;4.35;;;14.20;99.90;;;;;;6332683;22;20070;-87
2022/06/09 03:08:02;;;;;;;24.75;4.15;;;14.10;99.90;;;;;;6332063;22;19999;-86
2022/06/09 03:10:28;;;;;;;31.23;4.63;;;14.20;99.90;;;;;;6332316;22;20007;-86
2022/06/09 03:12:54;;;;;;;25.80;3.97;;;14.20;99.90;;;;;;6304458;22;20003;-87
2022/06/09 03:15:22;;;;;;;23.60;3.70;;;14.10;99.90;;;;;;6332761;22;19999;-87
2022/06/09 03:17:49;;;;;;;;;;;14.10;99.90;;;;;;6333219;22;20057;-87
2022/06/09 03:20:18;;;;;;;25.23;3.67;;;14.10;99.90;;;;;;6333262;22;20297;-86
2022/06/09 03:22:44;;;;;;;25.35;4.88;;;14.10;99.90;;;;;;6333262;22;20048;-86
2022/06/09 03:25:10;;;;;;;22.75;3.97;;;14.10;99.90;;;;;;6331924;22;20006;-87
2022/06/09 03:27:36;;;;;;;20.15;3.53;;;14.00;99.90;;;;;;6332034;22;20335;-86
2022/06/09 03:30:03;;;;;;;20.35;3.42;;;14.00;99.90;;;;;;6332869;22;20019;-85
2022/06/09 03:32:28;;;;;;;21.95;4.25;;;14.00;99.90;;;;;;6334139;22;20026;-86
2022/06/09 03:34:54;;;;;;;21.05;3.60;;;14.00;99.90;;;;;;6306270;22;20350;-86
2022/06/09 03:37:20;;;;;;;23.90;4.05;;;14.10;99.90;;;;;;6333960;22;20071;-86
2022/06/09 03:39:46;;;;;;;30.02;3.50;;;14.10;99.90;;;;;;6334874;22;19999;-88
2022/06/09 03:42:11;;;;;;;25.92;3.53;;;14.10;99.90;;;;;;6333477;22;20009;-86
2022/06/09 03:44:37;;;;;;;26.90;3.80;;;14.10;99.90;;;;;;6334099;22;20372;-90
2022/06/09 03:47:03;;;;;;;24.05;3.78;;;14.10;99.90;;;;;;6305827;22;20006;-87
2022/06/09 03:49:28;;;;;;;24.13;3.78;;;14.10;99.90;;;;;;6333946;22;20003;-87
2022/06/09 03:51:54;;;;;;;23.23;3.50;;;14.00;99.90;;;;;;6305932;22;20030;-86
2022/06/09 03:54:20;;;;;;;28.52;4.03;;;14.00;99.90;;;;;;6306243;22;20102;-86
2022/06/09 03:56:45;;;;;;;19.02;3.28;;;14.00;99.90;;;;;;6306828;22;20011;-85
2022/06/09 03:59:11;;;;;;;19.70;3.08;;;13.90;99.90;;;;;;6333569;22;20562;-87
2022/06/09 04:01:37;;;;;;;34.88;3.88;;;13.90;99.90;;;;;;6333711;22;20006;-87
2022/06/09 04:04:03;;;;;;;21.33;3.97;;;13.90;99.90;;;;;;6305789;22;19999;-87
2022/06/09 04:06:30;;;;;;;32.30;4.65;;;14.00;99.90;;;;;;6333514;22;20435;-90
2022/06/09 04:08:56;;;;;;;21.25;3.25;;;13.90;99.90;;;;;;6333171;22;20027;-89
2022/06/09 04:11:22;;;;;;;16.67;2.90;;;14.00;99.90;;;;;;6333380;22;19995;-88
2022/06/09 04:13:49;;;;;;;19.55;3.78;;;14.00;99.90;;;;;;6307182;22;20010;-88
2022/06/09 04:16:44;;;;;;;23.98;3.58;;;14.00;99.90;;;;;;6324944;22;20002;-89
2022/06/09 04:19:15;;;;;;;23.67;3.15;;;14.10;99.90;;;;;;6330370;22;20018;-89
2022/06/09 04:21:41;;;;;;;31.23;3.65;;;14.10;99.90;;;;;;6331821;22;20002;-88
2022/06/09 04:24:07;;;;;;;36.30;3.95;;;14.10;99.90;;;;;;6332609;22;20447;-88
2022/06/09 04:26:35;;;;;;;28.73;3.30;;;14.10;99.90;;;;;;6332577;22;20052;-88
2022/06/09 04:29:02;;;;;;;29.33;3.30;;;14.20;99.90;;;;;;6304789;22;20014;-88
2022/06/09 04:31:27;;;;;;;27.33;4.28;;;14.20;99.90;;;;;;6332379;22;20429;-89
2022/06/09 04:33:53;;;;;;;25.42;3.28;;;14.20;99.90;;;;;;6331992;22;19999;-88
2022/06/09 04:36:20;;;;;;;29.73;3.60;;;14.30;99.90;;;;;;6332650;22;20331;-89
2022/06/09 04:38:45;;;;;;;23.92;3.45;;;14.30;99.90;;;;;;6333392;22;20020;-88
2022/06/09 04:41:14;;;;;;;19.73;3.90;;;14.30;99.90;;;;;;6332069;22;20074;-87
2022/06/09 04:43:42;;;;;;;26.30;3.53;;;14.30;99.90;;;;;;6332854;22;20003;-89
2022/06/09 04:46:10;;;;;;;34.35;4.20;;;14.40;99.90;;;;;;6304389;22;20209;-88
2022/06/09 04:48:36;;;;;;;33.53;4.03;;;14.40;99.90;;;;;;6332498;22;19999;-88
2022/06/09 04:51:05;;;;;;;27.20;3.78;;;14.30;99.90;;;;;;6332036;22;20089;-87
2022/06/09 04:53:30;;;;;;;21.67;3.63;;;14.40;99.90;;;;;;6332151;22;20481;-87
2022/06/09 04:55:56;;;;;;;27.67;3.58;;;14.40;99.90;;;;;;6332259;22;19994;-87
2022/06/09 04:58:22;;;;;;;28.25;3.65;;;14.40;99.90;;;;;;6332414;22;20442;-89
2022/06/09 05:00:48;;;;;;;25.35;3.63;;;14.50;99.90;;;;;;6333763;22;19999;-89
2022/06/09 05:03:14;;;;;;;26.98;4.28;;;14.60;99.90;;;;;;6333447;22;20343;-87
2022/06/09 05:05:43;;;;;;;31.77;3.80;;;14.60;99.90;;;;;;6332972;22;20088;-87
2022/06/09 05:08:11;;;;;;;26.48;3.90;;;14.50;99.90;;;;;;6333126;22;20310;-87
2022/06/09 05:10:38;;;;;;;;;;;14.50;99.90;;;;;;6334010;22;20007;-88
2022/06/09 05:13:05;;;;;;;31.25;3.97;;;14.50;99.90;;;;;;6333576;22;19898;-88
2022/06/09 05:15:35;;;;;;;30.40;4.05;;;14.50;99.90;;;;;;6334056;22;19995;-94
2022/06/09 05:18:01;;;;;;;23.73;3.30;;;14.50;99.90;;;;;;6335541;22;20015;-92
2022/06/09 05:20:27;;;;;;;25.52;3.38;;;14.50;99.90;;;;;;6334237;22;20022;-94
2022/06/09 05:22:53;;;;;;;21.48;4.05;;;14.60;99.90;;;;;;6334935;22;20009;-88
2022/06/09 05:25:19;;;;;;;20.63;3.65;;;14.50;99.90;;;;;;6307667;22;19998;-88
2022/06/09 05:27:45;;;;;;;34.13;4.20;;;14.60;99.90;;;;;;6334888;22;20010;-92
2022/06/09 05:30:18;;;;;;;28.33;3.97;;;14.70;99.90;;;;;;6333396;22;19994;-87
2022/06/09 05:32:44;;;;;;;33.00;3.97;;;14.70;99.90;;;;;;6306340;22;20030;-85
2022/06/09 05:35:10;;;;;;;25.08;3.63;;;14.80;99.90;;;;;;6333271;22;20204;-88
2022/06/09 05:45:49;;;;;;;28.00;3.72;;;14.90;99.90;;;;;;6334912;22;20144;-93
2022/06/09 05:48:15;;;;;;;22.48;3.80;;;14.90;99.90;;;;;;6333812;22;20026;-88
2022/06/09 05:50:40;;;;;;;23.42;3.22;;;14.90;99.90;;;;;;6336025;22;20010;-88
2022/06/09 05:53:06;;;;;;;23.45;3.63;;;14.90;99.90;;;;;;6335297;22;19999;-89
2022/06/09 05:55:32;;;;;;;31.50;3.70;;;14.90;99.90;;;;;;6308754;22;20386;-86
2022/06/09 05:57:58;;;;;;;25.60;3.45;;;14.90;99.90;;;;;;6336116;22;20031;-91
2022/06/09 06:00:24;;;;;;;29.27;4.22;;;14.90;99.90;;;;;;6333554;22;20132;-92
2022/06/09 06:02:50;;;;;;;26.40;3.92;;;15.00;99.90;;;;;;6334978;22;20027;-89
2022/06/09 06:07:59;;;;;;;25.88;3.28;;;15.20;99.90;;;;;;6333150;22;20037;-89
2022/06/09 06:10:25;;;;;;;25.77;3.10;;;15.20;99.90;;;;;;6333526;22;19999;-89
2022/06/09 06:12:51;;;;;;;23.00;3.88;;;15.20;99.90;;;;;;6306934;22;20007;-86
2022/06/09 06:15:17;;;;;;;22.88;4.00;;;15.20;99.90;;;;;;6333592;22;19999;-87
2022/06/09 06:17:42;;;;;;;26.65;3.30;;;15.30;99.90;;;;;;6333293;22;20068;-88
2022/06/09 06:20:09;;;;;;;23.30;3.70;;;15.30;99.90;;;;;;6332982;22;20002;-86
2022/06/09 06:22:35;;;;;;;32.67;3.65;;;15.40;99.90;;;;;;6333718;22;20030;-91
2022/06/09 06:25:02;;;;;;;26.63;3.83;;;15.40;99.90;;;;;;6333009;22;20001;-88
2022/06/09 06:27:28;;;;;;;25.08;4.20;;;15.40;99.90;;;;;;6333625;22;20007;-91
2022/06/09 06:29:55;;;;;;;30.80;3.97;;;15.30;99.90;;;;;;6333307;22;20308;-92
2022/06/09 06:32:21;;;;;;;40.28;4.80;;;15.40;99.90;;;;;;6307219;22;20006;-94
2022/06/09 06:34:46;;;;;;;21.85;4.25;;;15.40;99.90;;;;;;6333359;22;20066;-90
2022/06/09 06:37:12;;;;;;;28.75;3.58;;;15.50;99.90;;;;;;6332826;22;20225;-88
2022/06/09 06:39:37;;;;;;;28.42;3.53;;;15.70;99.90;;;;;;6333514;22;20002;-89
2022/06/09 06:42:03;;;;;;;27.25;3.90;;;15.80;99.90;;;;;;6305491;22;20006;-91
2022/06/09 06:44:29;;;;;;;26.10;4.45;;;15.80;99.90;;;;;;6333347;22;19995;-92
2022/06/09 06:46:55;;;;;;;25.83;3.55;;;15.90;99.90;;;;;;6333077;22;19999;-89
2022/06/09 06:49:20;;;;;;;27.98;4.20;;;16.00;99.90;;;;;;6334415;22;20427;-92
2022/06/09 06:51:48;;;;;;;23.60;4.03;;;16.00;99.90;;;;;;6333147;22;20343;-92
2022/06/09 06:54:13;;;;;;;27.33;4.23;;;16.00;99.90;;;;;;6333130;22;20006;-93
2022/06/09 06:56:39;;;;;;;33.47;4.35;;;16.20;99.90;;;;;;6333181;22;20003;-91
2022/06/09 06:59:05;;;;;;;29.35;3.85;;;16.20;99.90;;;;;;6333253;22;20082;-90
2022/06/09 07:01:30;;;;;;;27.65;4.05;;;16.10;99.90;;;;;;6333228;22;19995;-93
2022/06/09 07:03:57;;;;;;;24.52;4.47;;;16.20;99.90;;;;;;6333002;22;19999;-86
2022/06/09 07:06:23;;;;;;;27.17;3.50;;;16.30;99.90;;;;;;6307333;22;20343;-87
2022/06/09 07:08:49;;;;;;;32.03;3.75;;;16.30;99.90;;;;;;6336314;22;20446;-91
2022/06/09 07:11:14;;;;;;;22.42;3.40;;;16.20;99.90;;;;;;6335012;22;20003;-92
2022/06/09 07:13:42;;;;;;;26.40;3.78;;;16.20;99.90;;;;;;6308072;22;20021;-92
2022/06/09 07:16:09;;;;;;;36.00;5.63;;;16.20;99.90;;;;;;6307061;22;20006;-88
2022/06/09 07:18:37;;;;;;;19.45;4.47;;;16.30;99.90;;;;;;6307307;22;20014;-87
2022/06/09 07:21:03;;;;;;;27.63;3.65;;;16.30;99.90;;;;;;6307064;22;20007;-88
2022/06/09 07:23:29;;;;;;;24.38;4.03;;;16.30;99.90;;;;;;6334982;22;19999;-86
2022/06/09 07:25:56;;;;;;;25.17;3.65;;;16.20;99.90;;;;;;6334634;22;20002;-88
2022/06/09 07:28:23;;;;;;;26.35;3.75;;;16.30;99.90;;;;;;6335287;22;19999;-87
2022/06/09 07:30:49;;;;;;;30.65;3.90;;;16.30;99.90;;;;;;6308192;22;20003;-87
2022/06/09 07:33:15;;;;;;;22.35;3.90;;;16.30;99.90;;;;;;6307424;22;20013;-92
2022/06/09 07:35:41;;;;;;;32.88;4.38;;;16.40;99.90;;;;;;6335124;22;20002;-91
2022/06/09 07:38:10;;;;;;;22.40;4.05;;;16.40;99.90;;;;;;6334324;22;20501;-90
2022/06/09 07:40:39;;;;;;;21.10;3.33;;;16.50;99.90;;;;;;6333496;22;20094;-85
2022/06/09 07:43:05;;;;;;;27.35;4.47;;;16.70;99.90;;;;;;6305488;22;20010;-90
2022/06/09 07:45:32;;;;;;;25.20;3.85;;;16.70;99.90;;;;;;6333543;22;20007;-90
2022/06/09 07:47:58;;;;;;;16.83;3.40;;;16.80;99.90;;;;;;6305106;22;20007;-86
2022/06/09 07:50:24;;;;;;;17.30;3.38;;;17.00;99.90;;;;;;6333584;22;20060;-86
2022/06/09 07:52:50;;;;;;;25.40;3.92;;;17.10;99.90;;;;;;6334723;22;20382;-86
2022/06/09 07:55:16;;;;;;;24.52;4.30;;;17.10;99.90;;;;;;6303674;22;20025;-90
2022/06/09 07:57:43;;;;;;;25.67;3.97;;;17.20;99.90;;;;;;6333151;22;20690;-85
2022/06/09 08:00:10;;;;;;;33.40;4.18;;;17.10;99.90;;;;;;6305261;22;20006;-88
2022/06/09 08:02:36;;;;;;;27.70;4.07;;;17.20;99.90;;;;;;6305612;22;20386;-89
2022/06/09 08:05:03;;;;;;;27.60;3.70;;;17.30;99.90;;;;;;6333436;22;20003;-90
2022/06/09 08:07:29;;;;;;;26.52;3.80;;;17.40;99.90;;;;;;6305942;22;20007;-89
2022/06/09 08:09:55;;;;;;;22.45;3.85;;;17.40;99.90;;;;;;6332468;22;19999;-91
2022/06/09 08:12:21;;;;;;;28.70;4.32;;;17.50;99.90;;;;;;6334334;22;20389;-91
2022/06/09 08:14:46;;;;;;;25.58;4.10;;;17.60;99.90;;;;;;6334059;22;20436;-90
2022/06/09 08:17:12;;;;;;;22.50;3.95;;;17.60;99.90;;;;;;6333532;22;20049;-90
2022/06/09 08:19:38;;;;;;;30.63;4.70;;;17.60;99.90;;;;;;6334623;22;20048;-86
2022/06/09 08:22:04;;;;;;;27.80;3.85;;;17.70;99.90;;;;;;6333613;22;19998;-88
2022/06/09 08:24:33;;;;;;;24.73;3.72;;;17.70;99.90;;;;;;6306246;22;20030;-88
2022/06/09 08:27:02;;;;;;;28.10;4.18;;;17.80;99.90;;;;;;6307051;22;20003;-90
2022/06/09 08:29:29;;;;;;;26.73;3.55;;;17.90;99.90;;;;;;6334783;22;19998;-89
2022/06/09 08:31:55;;;;;;;24.00;3.13;;;18.00;99.90;;;;;;6334443;22;20003;-88
2022/06/09 08:34:21;;;;;;;20.58;3.30;;;17.90;99.90;;;;;;6335579;22;20446;-86
2022/06/09 08:36:47;;;;;;;26.70;3.90;;;18.10;99.90;;;;;;6335177;22;20360;-88
2022/06/09 08:39:13;;;;;;;23.20;3.80;;;18.10;99.90;;;;;;6305595;22;20007;-89
2022/06/09 08:41:48;;;;;;;32.67;4.65;;;17.90;99.90;;;;;;6334124;22;19999;-90
2022/06/09 08:44:16;;;;;;;31.15;4.45;;;17.80;99.90;;;;;;6306431;22;20003;-90
2022/06/09 08:47:08;;;;;;;18.10;3.42;;;17.70;99.90;;;;;;6334391;22;20098;-87
2022/06/09 08:50:16;;;;;;;19.52;4.18;;;17.70;99.90;;;;;;6334168;22;19995;-90
2022/06/09 08:52:48;;;;;;;26.10;4.30;;;17.80;99.90;;;;;;6299214;22;20709;-90
2022/06/09 08:55:22;;;;;;;26.40;3.65;;;18.10;99.90;;;;;;6333261;22;19999;-86
2022/06/09 08:57:50;;;;;;;23.55;4.35;;;18.00;99.90;;;;;;6335256;22;20064;-90
2022/06/09 09:00:21;;;;;;;24.73;4.45;;;17.90;99.90;;;;;;6333856;22;20002;-88
2022/06/09 09:02:59;;;;;;;22.90;3.30;;;17.90;99.90;;;;;;6333810;22;20417;-89
2022/06/09 09:05:33;;;;;;;18.52;3.25;;;18.00;99.90;;;;;;6334222;22;20446;-89
2022/06/09 09:08:01;;;;;;;19.50;3.20;;;18.10;99.90;;;;;;6333380;22;19999;-90
2022/06/09 09:10:31;;;;;;;17.02;2.88;;;18.00;99.90;;;;;;6333282;22;19999;-88
2022/06/09 09:13:03;;;;;;;18.85;3.13;;;18.10;99.90;;;;;;6333721;22;19999;-91
2022/06/09 09:15:56;;;;;;;12.75;2.83;;;18.20;99.90;;;;;;6306865;22;19999;-89
2022/06/09 09:18:45;;;;;;;9.65;2.50;;;18.40;99.90;;;;;;6334756;22;20351;-88
2022/06/09 09:21:44;;;;;;;15.88;2.50;;;18.30;99.90;;;;;;6333721;22;19994;-89
2022/06/09 09:24:22;;;;;;;16.70;2.95;;;18.30;99.90;;;;;;6305753;22;20006;-89
2022/06/09 09:26:57;;;;;;;15.20;2.77;;;18.30;99.90;;;;;;6335137;22;20021;-89
2022/06/09 09:29:41;;;;;;;15.52;2.63;;;18.40;99.90;;;;;;6333709;22;20470;-87
2022/06/09 09:32:14;;;;;;;17.98;2.85;;;18.40;99.90;;;;;;6306014;22;20003;-88
2022/06/09 09:34:45;;;;;;;14.00;3.28;;;18.70;99.90;;;;;;6306356;22;20003;-90
2022/06/09 09:37:20;;;;;;;17.45;2.90;;;18.90;99.90;;;;;;6333398;22;20435;-89
2022/06/09 09:40:14;;;;;;;15.90;2.80;;;19.10;99.90;;;;;;6332918;22;20003;-89
2022/06/09 09:42:42;;;;;;;17.02;2.63;;;19.00;99.90;;;;;;6333546;22;19995;-90
2022/06/09 09:45:11;;;;;;;15.85;2.95;;;19.00;99.90;;;;;;6305725;22;20007;-86
2022/06/09 09:47:45;;;;;;;18.30;3.50;;;19.10;99.90;;;;;;6333861;22;20027;-89
2022/06/09 09:50:32;;;;;;;20.48;3.28;;;19.10;99.90;;;;;;6333204;22;20006;-89
2022/06/09 09:53:06;;;;;;;21.60;3.00;;;19.20;99.90;;;;;;6332342;22;20010;-86
2022/06/09 09:55:49;;;;;;;9.60;2.03;;;19.70;99.90;;;;;;6333721;22;20419;-89
2022/06/09 09:58:14;;;;;;;11.02;2.17;;;19.80;99.90;;;;;;6333272;22;20011;-90
2022/06/09 10:00:40;;;;;;;12.35;2.67;;;19.60;99.90;;;;;;6305755;22;20339;-89
2022/06/09 10:08:47;;;;;;;22.83;3.08;;;19.70;99.90;;;;;;6332630;22;20682;-89
2022/06/09 10:14:33;;;;;;;14.00;2.40;;;20.00;99.90;;;;;;6332894;22;20021;-89
2022/06/09 10:17:01;;;;;;;13.73;2.47;;;19.90;99.90;;;;;;6305771;22;20006;-89
2022/06/09 10:19:30;;;;;;;17.00;2.47;;;19.90;99.90;;;;;;6333210;22;20010;-90
2022/06/09 10:22:22;;;;;;;11.35;2.22;;;20.10;99.90;;;;;;6332984;22;19999;-87
2022/06/09 10:25:00;;;;;;;9.45;2.40;;;20.10;99.90;;;;;;6333857;22;20067;-89
2022/06/09 10:27:32;;;;;;;15.88;2.70;;;20.10;99.90;;;;;;6333326;22;20059;-88
2022/06/09 10:30:18;;;;;;;11.60;2.35;;;20.40;99.90;;;;;;6332809;22;20007;-88
2022/06/09 10:33:02;;;;;;;7.65;2.00;;;20.40;95.00;;;;;;6333136;22;19999;-88
2022/06/09 10:35:44;;;;;;;13.70;2.25;;;20.30;94.40;;;;;;6305420;22;20006;-89
2022/06/09 10:38:25;;;;;;;13.40;2.40;;;20.20;97.20;;;;;;6331993;22;20092;-90
2022/06/09 10:40:56;;;;;;;15.18;2.78;;;20.30;94.40;;;;;;6334075;22;20003;-89
2022/06/09 10:43:27;;;;;;;8.50;2.03;;;20.30;93.80;;;;;;6334245;22;19999;-87
2022/06/09 10:46:04;;;;;;;16.08;2.22;;;20.50;96.60;;;;;;6305171;22;20446;-86
2022/06/09 10:57:42;;;;;;;11.50;2.20;;;21.10;95.70;;;;;;6333087;22;20576;-90
2022/06/09 11:00:14;;;;;;;14.68;2.53;;;20.80;94.60;;;;;;6332908;22;20027;-90
2022/06/09 11:02:46;;;;;;;16.90;2.97;;;20.60;93.30;;;;;;6333806;22;20431;-89
2022/06/09 11:05:15;;;;;;;13.10;2.13;;;20.60;97.70;;;;;;6332769;22;20381;-89
2022/06/09 11:08:01;;;;;;;8.90;1.98;;;20.90;97.00;;;;;;6332153;22;20025;-88
2022/06/09 11:10:43;;;;;;;18.15;2.50;;;21.00;96.90;;;;;;6332273;22;20068;-86
2022/06/09 11:13:11;;;;;;;15.10;2.63;;;21.00;94.10;;;;;;6304779;22;20060;-87
2022/06/09 11:16:16;;;;;;;12.68;2.15;;;20.90;95.60;;;;;;6332920;22;20022;-88
2022/06/09 11:18:46;;;;;;;11.38;2.10;;;21.10;94.00;;;;;;6333337;22;20330;-93
2022/06/09 11:21:36;;;;;;;12.63;2.05;;;21.20;93.50;;;;;;6333735;22;20325;-87
2022/06/09 11:24:19;;;;;;;11.95;2.20;;;21.30;94.50;;;;;;6332551;22;19998;-90
2022/06/09 11:26:52;;;;;;;14.23;2.30;;;21.30;95.40;;;;;;6333726;22;20002;-90
2022/06/09 11:29:32;;;;;;;12.90;2.10;;;21.30;91.20;;;;;;6307315;22;20002;-92
2022/06/09 11:32:52;;;;;;;12.02;2.00;;;21.50;96.90;;;;;;6334065;22;20041;-89
2022/06/09 11:35:29;;;;;;;20.98;2.80;;;21.80;94.00;;;;;;6253098;22;20007;-93
2022/06/09 11:38:12;;;;;;;9.18;2.42;;;21.70;93.00;;;;;;6307496;22;20450;-93
2022/06/09 11:41:25;;;;;;;16.50;2.40;;;21.50;93.50;;;;;;6305132;22;20002;-89
2022/06/09 11:44:15;;;;;;;14.15;2.40;;;21.30;94.50;;;;;;6320433;22;20070;-89
2022/06/09 11:46:43;;;;;;;17.50;2.30;;;21.30;95.50;;;;;;6332775;22;20022;-88
2022/06/09 11:49:20;;;;;;;16.33;2.60;;;21.30;96.20;;;;;;6330898;22;20168;-88
2022/06/09 11:51:47;;;;;;;10.73;2.35;;;21.60;92.70;;;;;;6335188;22;20236;-88
2022/06/09 11:54:34;;;;;;;22.95;3.17;;;21.80;97.00;;;;;;6332265;22;20116;-86
2022/06/09 11:57:40;;;;;;;15.02;2.70;;;22.10;91.80;;;;;;6332599;22;20002;-88
2022/06/09 12:00:18;;;;;;;10.82;2.67;;;22.00;90.20;;;;;;6332402;22;20432;-89
2022/06/09 12:02:50;;;;;;;;;;;21.60;92.60;;;;;;6333552;22;20069;-87
2022/06/09 12:05:29;;;;;;;13.05;2.60;;;21.70;94.40;;;;;;6332323;22;19898;-87
2022/06/09 12:08:21;;;;;;;16.42;2.08;;;21.80;95.80;;;;;;6332367;22;20034;-87
2022/06/09 12:11:09;;;;;;;18.13;2.83;;;22.00;95.00;;;;;;6307552;22;20048;-86
2022/06/09 12:13:38;;;;;;;;;;;22.10;96.90;;;;;;6306805;22;20003;-87
2022/06/09 12:16:34;;;;;;;15.40;2.53;;;22.30;94.70;;;;;;6333621;22;19936;-86
2022/06/09 12:19:15;;;;;;;8.68;1.90;;;22.00;89.80;;;;;;6305969;22;20011;-86
2022/06/09 12:21:44;;;;;;;13.45;2.40;;;21.90;92.80;;;;;;6333970;22;20389;-87
2022/06/09 12:24:24;;;;;;;14.88;2.55;;;21.90;92.00;;;;;;6333662;22;20007;-86
2022/06/09 12:26:55;;;;;;;17.45;2.45;;;21.90;93.70;;;;;;6335190;22;19999;-87
2022/06/09 12:29:41;;;;;;;14.10;2.40;;;22.10;93.60;;;;;;6335019;22;19995;-87
2022/06/09 12:32:10;;;;;;;21.30;2.30;;;22.20;90.10;;;;;;6306057;22;20035;-86
2022/06/09 12:34:38;;;;;;;12.60;1.90;;;22.20;93.10;;;;;;6334175;22;19999;-87
2022/06/09 12:37:04;;;;;;;18.42;2.60;;;22.10;93.80;;;;;;6305229;22;20015;-87
2022/06/09 12:39:41;;;;;;;16.90;2.25;;;22.10;92.70;;;;;;6333866;22;20007;-86
2022/06/09 12:42:47;;;;;;;10.95;2.20;;;22.00;91.30;;;;;;6333805;22;19999;-86
2022/06/09 12:45:24;;;;;;;17.77;2.33;;;21.80;90.70;;;;;;6327316;22;20033;-86
2022/06/09 12:47:57;;;;;;;12.30;2.67;;;21.80;94.20;;;;;;6334989;22;20423;-87
2022/06/09 12:50:32;;;;;;;16.55;2.47;;;22.00;95.70;;;;;;6334055;22;20003;-86
2022/06/09 12:52:58;;;;;;;16.73;2.58;;;22.20;93.30;;;;;;6305099;22;20030;-87
2022/06/09 12:55:29;;;;;;;19.08;2.88;;;22.30;91.90;;;;;;6333898;22;20003;-87
2022/06/09 12:58:02;;;;;;;11.15;2.33;;;22.20;91.10;;;;;;6333209;22;20434;-86
2022/06/09 13:00:35;;;;;;;10.65;2.30;;;22.10;91.00;;;;;;6333601;22;20003;-87
2022/06/09 13:03:00;;;;;;;13.05;2.35;;;22.10;94.50;;;;;;6333343;22;20009;-87
2022/06/09 13:05:32;;;;;;;13.48;2.22;;;22.40;94.50;;;;;;6333703;22;20070;-87
2022/06/09 13:08:03;;;;;;;16.52;2.40;;;22.50;93.20;;;;;;6305012;22;20424;-88
2022/06/09 13:10:38;;;;;;;13.63;2.53;;;22.60;92.10;;;;;;6306184;22;20316;-87
2022/06/09 13:13:16;;;;;;;13.55;2.08;;;22.50;90.10;;;;;;6305544;22;20030;-87
2022/06/09 13:15:52;;;;;;;13.43;2.17;;;22.50;90.20;;;;;;6333532;22;20261;-87
2022/06/09 13:18:26;;;;;;;11.73;2.38;;;22.20;90.30;;;;;;6333786;22;20011;-87
2022/06/09 13:21:00;;;;;;;14.85;2.55;;;22.00;91.50;;;;;;6332340;22;20006;-88
2022/06/09 13:23:28;;;;;;;14.50;2.45;;;22.30;93.90;;;;;;6331666;22;20041;-87
2022/06/09 13:25:55;;;;;;;15.75;2.25;;;22.30;91.00;;;;;;6299430;22;20083;-88
2022/06/09 13:28:26;;;;;;;16.42;2.40;;;22.20;89.90;;;;;;6331736;22;20022;-88